Time;durP1;ratioP1;P1;durP2;ratioP2;P2;SDS_P1;SDS_P2;PMS_P1;PMS_P2;Temp;Humidity;BMP_temperature;BMP_pressure;BME280_temperature;BME280_humidity;BME280_pressure;Samples;Min_cycle;Max_cycle;Signal;HPM_P1;HPM_P2
2023/10/15 00:01:33;;;;;;;12.20;9.43;;;;;;;13.60;89.89;97620.75;5092799;28;20054;-61
2023/10/15 00:03:59;;;;;;;16.10;9.15;;;;;;;13.60;89.62;97615.44;5092432;28;20105;-61
2023/10/15 00:06:25;;;;;;;13.07;8.48;;;;;;;13.58;89.87;97612.28;5092805;28;20036;-62
2023/10/15 00:08:50;;;;;;;13.13;9.30;;;;;;;13.57;89.62;97608.03;5092059;28;20047;-61
2023/10/15 00:11:21;;;;;;;14.90;9.40;;;;;;;13.51;90.25;97620.69;5072432;28;20072;-61
2023/10/15 00:13:47;;;;;;;13.95;8.85;;;;;;;13.51;90.47;97620.69;5072031;28;20051;-62
2023/10/15 00:16:20;;;;;;;13.10;8.85;;;;;;;13.49;90.19;97608.75;5090596;28;20101;-61
2023/10/15 00:18:46;;;;;;;11.60;8.70;;;;;;;13.45;90.41;97613.13;5092334;28;20075;-61
2023/10/15 00:21:12;;;;;;;11.05;8.82;;;;;;;13.43;90.33;97600.09;5092300;28;20564;-62
2023/10/15 00:23:42;;;;;;;12.82;8.70;;;;;;;13.38;90.82;97606.31;5092306;28;20047;-61
2023/10/15 00:26:10;;;;;;;;;;;;;;;13.40;90.66;97596.16;5092720;28;20055;-61
2023/10/15 00:28:37;;;;;;;11.82;9.13;;;;;;;13.40;91.04;97601.47;5091932;28;20022;-61
2023/10/15 00:31:08;;;;;;;13.75;8.82;;;;;;;13.42;90.75;97600.41;5091420;28;20071;-61
2023/10/15 00:33:34;;;;;;;16.73;8.90;;;;;;;13.42;91.03;97611.81;5092248;28;20093;-61
2023/10/15 00:36:00;;;;;;;12.95;8.50;;;;;;;13.38;90.90;97606.31;5073753;28;20061;-62
2023/10/15 00:38:25;;;;;;;12.20;8.70;;;;;;;13.40;90.69;97609.44;5057196;28;20123;-61
2023/10/15 00:41:00;;;;;;;16.13;9.05;;;;;;;13.42;90.73;97605.72;5073721;28;20136;-61
2023/10/15 00:43:27;;;;;;;13.85;9.02;;;;;;;13.42;90.85;97609.16;5057649;28;20059;-63
2023/10/15 00:45:53;;;;;;;16.80;9.32;;;;;;;13.47;90.93;97611.72;5073576;28;20052;-61
2023/10/15 00:48:33;;;;;;;11.45;8.90;;;;;;;13.44;90.98;97604.31;5091909;28;20040;-62
2023/10/15 00:51:00;;;;;;;11.77;9.02;;;;;;;13.50;90.72;97620.97;5055551;28;20090;-63
2023/10/15 00:53:27;;;;;;;12.10;8.65;;;;;;;13.57;90.51;97618.69;5053946;28;20121;-61
2023/10/15 00:56:04;;;;;;;14.00;8.73;;;;;;;13.66;90.24;97624.88;5075624;28;20044;-61
2023/10/15 01:01:19;;;;;;;18.27;8.65;;;;;;;13.80;89.42;97624.84;5091775;28;20052;-61
2023/10/15 01:03:53;;;;;;;10.55;8.57;;;;;;;13.70;88.64;97590.44;5073341;28;20585;-61
2023/10/15 01:08:53;;;;;;;14.57;8.30;;;;;;;13.90;88.53;97605.97;5067320;28;20429;-61
2023/10/15 01:11:21;;;;;;;12.85;8.43;;;;;;;13.88;88.82;97612.66;5055063;28;20094;-59
2023/10/15 01:13:47;;;;;;;12.38;8.52;;;;;;;13.91;88.56;97609.41;5071235;28;20042;-63
2023/10/15 01:16:17;;;;;;;13.13;8.95;;;;;;;13.89;88.77;97599.06;5053193;28;20418;-62
2023/10/15 01:18:45;;;;;;;;;;;;;;;13.91;88.41;97609.41;5071685;28;20491;-61
2023/10/15 01:21:13;;;;;;;12.90;7.95;;;;;;;13.93;88.05;97609.91;5071345;28;19924;-61
2023/10/15 01:26:23;;;;;;;18.50;9.10;;;;;;;13.94;88.19;97616.78;5064932;28;20056;-61
2023/10/15 01:28:51;;;;;;;14.40;8.75;;;;;;;13.95;87.87;97615.72;5049787;28;20037;-61
2023/10/15 01:31:17;;;;;;;13.75;9.00;;;;;;;13.99;87.90;97630.78;5051338;28;20071;-61
2023/10/15 01:33:46;;;;;;;14.73;8.57;;;;;;;14.04;87.72;97616.56;5067587;28;20041;-61
2023/10/15 01:36:18;;;;;;;13.35;8.75;;;;;;;14.02;87.23;97627.50;5071121;28;20036;-62
2023/10/15 01:38:44;;;;;;;12.95;8.82;;;;;;;14.03;87.11;97613.13;5049895;28;20033;-62
2023/10/15 01:41:14;;;;;;;11.70;8.48;;;;;;;14.06;87.01;97623.16;5050022;28;20053;-60
2023/10/15 01:43:41;;;;;;;10.63;8.70;;;;;;;14.04;87.26;97608.56;5068222;28;20414;-61
2023/10/15 01:46:10;;;;;;;11.35;8.65;;;;;;;14.03;87.37;97614.97;5057419;28;20056;-61
2023/10/15 01:48:40;;;;;;;11.65;8.88;;;;;;;14.03;87.31;97620.31;5074876;28;20032;-62
2023/10/15 01:51:06;;;;;;;14.38;8.90;;;;;;;14.04;87.50;97616.56;5074913;28;20071;-62
2023/10/15 01:53:39;;;;;;;13.88;8.77;;;;;;;14.03;87.20;97617.63;5074683;28;20044;-61
2023/10/15 01:56:06;;;;;;;16.70;8.95;;;;;;;14.01;87.31;97609.97;5056773;28;20410;-61
2023/10/15 01:58:32;;;;;;;12.68;8.90;;;;;;;14.02;88.03;97603.53;5030466;28;20045;-61
2023/10/15 02:01:13;;;;;;;14.27;9.13;;;;;;;14.03;87.28;97615.78;5053214;28;20049;-61
2023/10/15 02:03:41;;;;;;;11.70;8.68;;;;;;;14.04;87.24;97616.56;5063554;28;20383;-61
2023/10/15 02:06:07;;;;;;;13.82;9.00;;;;;;;14.04;87.02;97608.56;5074829;28;20071;-62
2023/10/15 02:08:35;;;;;;;15.05;8.75;;;;;;;14.04;87.27;97612.03;5075876;28;20513;-61
2023/10/15 02:11:21;;;;;;;11.38;8.38;;;;;;;14.03;87.11;97604.31;5073237;28;20055;-62
2023/10/15 02:13:48;;;;;;;14.30;8.70;;;;;;;14.05;87.18;97607.47;5076202;28;20047;-62
2023/10/15 02:16:18;;;;;;;13.63;8.95;;;;;;;14.00;87.48;97611.06;5076726;28;20074;-62
2023/10/15 02:18:49;;;;;;;12.70;8.52;;;;;;;13.95;87.89;97621.03;5075201;28;20044;-61
2023/10/15 02:21:19;;;;;;;11.55;8.50;;;;;;;13.88;88.04;97607.34;5094512;28;20055;-61
2023/10/15 02:23:50;;;;;;;12.52;9.30;;;;;;;13.76;88.62;97595.34;5056748;28;20083;-61
2023/10/15 02:26:30;;;;;;;13.45;9.27;;;;;;;13.71;88.98;97605.34;5056633;28;20044;-62
2023/10/15 02:29:05;;;;;;;11.32;8.63;;;;;;;13.68;89.12;97621.91;5060754;28;20119;-60
2023/10/15 02:31:31;;;;;;;15.25;9.38;;;;;;;13.68;89.76;97612.06;5094494;28;20093;-60
2023/10/15 02:33:57;;;;;;;12.90;9.25;;;;;;;13.71;89.39;97610.69;5094383;28;20048;-61
2023/10/15 02:36:25;;;;;;;14.02;8.80;;;;;;;13.68;89.62;97604.06;5076134;28;20540;-61
2023/10/15 02:38:55;;;;;;;13.55;8.95;;;;;;;13.74;89.54;97612.75;5094229;28;20477;-62
2023/10/15 02:41:40;;;;;;;14.68;9.65;;;;;;;13.71;89.62;97619.44;5076107;28;20134;-60
2023/10/15 02:44:14;;;;;;;11.27;8.35;;;;;;;13.74;89.52;97621.50;5075730;28;20047;-62
2023/10/15 02:46:47;;;;;;;11.65;8.82;;;;;;;13.75;89.52;97617.75;5094452;28;20127;-61
2023/10/15 02:49:15;;;;;;;13.48;9.27;;;;;;;13.77;89.09;97628.91;5075580;28;20036;-61
2023/10/15 02:51:42;;;;;;;12.75;9.05;;;;;;;13.81;88.81;97631.75;5094232;28;20285;-61
2023/10/15 02:54:27;;;;;;;11.20;8.07;;;;;;;13.81;89.29;97618.44;5058315;28;20416;-63
2023/10/15 02:56:56;;;;;;;15.45;9.65;;;;;;;13.82;88.97;97617.31;5094273;28;20040;-60
2023/10/15 02:59:29;;;;;;;15.07;8.90;;;;;;;13.86;88.76;97626.31;5075931;28;20067;-60
2023/10/15 03:01:56;;;;;;;11.82;8.77;;;;;;;13.86;88.92;97620.97;5075811;28;20043;-60
2023/10/15 03:04:32;;;;;;;14.70;8.73;;;;;;;13.87;88.85;97622.53;5093767;28;20044;-61
2023/10/15 03:07:19;;;;;;;13.52;8.95;;;;;;;13.88;88.84;97626.00;5076932;28;20044;-62
2023/10/15 03:09:48;;;;;;;15.48;8.98;;;;;;;13.89;88.54;97630.25;5052736;28;20518;-62
2023/10/15 03:12:18;;;;;;;15.48;8.95;;;;;;;13.90;88.47;97623.81;5072361;28;20049;-62
2023/10/15 03:14:45;;;;;;;13.53;9.03;;;;;;;13.89;88.49;97635.56;5073409;28;20123;-62
2023/10/15 03:17:43;;;;;;;12.55;8.98;;;;;;;13.91;88.93;97636.03;5071566;28;20048;-61
2023/10/15 03:22:46;;;;;;;15.52;9.50;;;;;;;13.89;88.59;97624.91;5073241;28;20072;-61
2023/10/15 03:25:16;;;;;;;12.57;8.70;;;;;;;13.88;88.97;97618.00;5071788;28;20036;-63
2023/10/15 03:27:46;;;;;;;14.75;8.90;;;;;;;13.91;88.74;97626.16;5071667;28;20048;-62
2023/10/15 03:30:13;;;;;;;15.63;9.07;;;;;;;13.84;89.32;97626.59;5072996;28;20041;-60
2023/10/15 03:32:41;;;;;;;14.13;9.18;;;;;;;13.84;89.64;97631.13;5051495;28;20089;-61
2023/10/15 03:35:16;;;;;;;13.27;9.20;;;;;;;13.84;90.35;97615.94;5053063;28;20052;-61
2023/10/15 03:37:45;;;;;;;14.00;9.45;;;;;;;13.81;90.15;97619.22;5070422;28;20189;-61
2023/10/15 03:40:28;;;;;;;15.00;9.23;;;;;;;13.81;90.33;97605.09;5054792;28;20627;-61
2023/10/15 03:43:00;;;;;;;13.75;9.65;;;;;;;13.83;90.72;97610.94;5072727;28;20043;-61
2023/10/15 03:45:27;;;;;;;13.50;8.98;;;;;;;13.80;91.01;97616.88;5072765;28;20467;-61
2023/10/15 03:47:54;;;;;;;13.98;9.88;;;;;;;13.79;91.25;97628.59;5071247;28;20055;-61
2023/10/15 03:50:20;;;;;;;14.60;9.65;;;;;;;13.77;91.54;97631.56;5071261;28;20119;-61
2023/10/15 03:52:46;;;;;;;12.70;8.98;;;;;;;13.77;91.55;97634.22;5071292;28;20134;-61
2023/10/15 03:55:12;;;;;;;11.38;9.60;;;;;;;13.78;91.85;97630.47;5072747;28;20529;-61
2023/10/15 03:57:38;;;;;;;12.00;9.50;;;;;;;13.77;92.14;97631.56;5072530;28;20043;-61
2023/10/15 04:00:26;;;;;;;13.85;10.05;;;;;;;13.79;92.48;97633.91;5070967;28;20040;-63
2023/10/15 04:05:28;;;;;;;12.32;9.52;;;;;;;13.79;92.92;97624.03;5071069;28;20044;-62
2023/10/15 04:07:54;;;;;;;;;;;;;;;13.79;93.25;97631.25;5072357;28;20498;-61
2023/10/15 04:10:33;;;;;;;14.02;9.50;;;;;;;13.76;93.20;97624.63;5089916;28;19919;-60
2023/10/15 04:13:00;;;;;;;15.85;10.27;;;;;;;13.74;92.80;97632.16;5074016;28;20048;-62
2023/10/15 04:15:27;;;;;;;18.30;10.60;;;;;;;13.74;93.27;97634.81;5092473;28;20087;-60
2023/10/15 04:17:53;;;;;;;13.98;10.43;;;;;;;13.75;93.04;97627.63;5073904;28;20074;-60
2023/10/15 04:20:35;;;;;;;15.95;10.35;;;;;;;13.74;93.56;97631.38;5057827;28;20074;-60
2023/10/15 04:23:01;;;;;;;15.38;9.75;;;;;;;13.74;94.16;97642.81;5056164;28;20132;-61
2023/10/15 04:25:32;;;;;;;16.58;10.25;;;;;;;13.69;93.62;97644.78;5072089;28;20086;-62
2023/10/15 04:28:19;;;;;;;15.30;10.38;;;;;;;13.73;94.04;97651.09;5062969;28;20044;-61
2023/10/15 04:30:46;;;;;;;14.23;10.15;;;;;;;13.68;94.39;97645.88;5091700;28;20424;-62
2023/10/15 04:33:14;;;;;;;15.75;10.68;;;;;;;13.69;94.35;97648.25;5091667;28;20405;-62
2023/10/15 04:35:41;;;;;;;15.23;10.73;;;;;;;13.71;95.41;97656.72;5091960;28;20505;-62
2023/10/15 04:38:07;;;;;;;16.23;10.75;;;;;;;13.70;95.71;97657.00;5091907;28;20051;-61
2023/10/15 04:40:48;;;;;;;15.23;10.15;;;;;;;13.70;95.16;97662.34;5091875;28;20448;-61
2023/10/15 04:43:14;;;;;;;13.30;9.55;;;;;;;13.66;94.95;97674.69;5091603;28;20035;-61
2023/10/15 04:45:44;;;;;;;13.77;10.10;;;;;;;13.69;95.45;97677.53;5073587;28;20100;-61
2023/10/15 04:48:16;;;;;;;15.07;10.32;;;;;;;13.69;94.73;97682.84;5091556;28;20142;-61
2023/10/15 04:50:45;;;;;;;15.90;10.00;;;;;;;13.63;95.38;97692.81;5091845;28;20052;-61
2023/10/15 04:55:51;;;;;;;16.00;8.30;;;;;;;13.55;96.42;97698.06;5091898;28;20044;-62
2023/10/15 04:58:18;;;;;;;7.60;4.68;;;;;;;13.35;90.02;97693.94;5073260;28;20035;-61
2023/10/15 05:00:45;;;;;;;5.72;4.10;;;;;;;13.16;89.08;97708.09;5073462;28;20047;-61
2023/10/15 05:03:12;;;;;;;8.25;3.95;;;;;;;13.09;90.17;97704.25;5091382;28;20532;-60
2023/10/15 05:05:38;;;;;;;5.78;3.20;;;;;;;12.96;86.53;97711.91;5091792;28;20485;-60
2023/10/15 05:08:10;;;;;;;5.18;3.45;;;;;;;12.89;85.23;97708.84;5091524;28;20055;-61
2023/10/15 05:10:39;;;;;;;5.32;3.38;;;;;;;12.82;85.39;97712.97;5074012;28;20070;-61
2023/10/15 05:13:05;;;;;;;6.55;3.40;;;;;;;12.77;85.51;97718.41;5071447;28;20044;-61
2023/10/15 05:15:30;;;;;;;3.55;2.58;;;;;;;12.72;82.70;97712.06;5088528;28;20516;-62
2023/10/15 05:17:56;;;;;;;3.55;2.33;;;;;;;12.69;80.90;97720.63;5091147;28;20039;-62
2023/10/15 05:20:22;;;;;;;3.10;2.35;;;;;;;12.59;79.83;97722.66;5091080;28;20508;-61
2023/10/15 05:22:48;;;;;;;2.72;1.92;;;;;;;12.45;74.27;97710.13;5091219;28;20062;-62
2023/10/15 05:25:17;;;;;;;4.63;2.30;;;;;;;12.48;75.34;97711.41;5072989;28;20040;-61
2023/10/15 05:27:45;;;;;;;2.97;2.00;;;;;;;12.46;74.55;97703.72;5073376;28;20071;-61
2023/10/15 05:30:12;;;;;;;5.40;2.00;;;;;;;12.50;74.16;97706.59;5090837;28;20059;-60
2023/10/15 05:32:38;;;;;;;2.38;1.90;;;;;;;12.52;73.10;97712.41;5073373;28;20040;-60
2023/10/15 05:35:08;;;;;;;2.83;1.70;;;;;;;12.53;73.00;97710.53;5072891;28;20038;-61
2023/10/15 05:37:38;;;;;;;2.83;2.30;;;;;;;12.52;73.47;97706.31;5091386;28;20044;-60
2023/10/15 05:40:06;;;;;;;5.97;2.45;;;;;;;12.47;74.71;97707.16;5074142;28;20031;-63
2023/10/15 05:42:33;;;;;;;7.57;2.80;;;;;;;12.48;75.68;97698.91;5091228;28;20032;-60
2023/10/15 05:44:58;;;;;;;4.35;2.78;;;;;;;12.44;75.52;97691.78;5090894;28;20043;-61
2023/10/15 05:47:24;;;;;;;5.32;2.40;;;;;;;12.44;76.01;97691.78;5073202;28;20044;-62
2023/10/15 05:49:50;;;;;;;3.88;2.20;;;;;;;12.44;73.80;97675.84;5091088;28;20040;-62
2023/10/15 05:52:15;;;;;;;4.30;2.50;;;;;;;12.45;73.36;97674.78;5073280;28;20056;-61
2023/10/15 05:54:41;;;;;;;5.07;2.80;;;;;;;12.44;75.02;97692.63;5090974;28;20088;-62
2023/10/15 05:57:07;;;;;;;5.32;2.72;;;;;;;12.46;76.25;97701.06;5091306;28;20044;-62
2023/10/15 05:59:35;;;;;;;3.05;2.20;;;;;;;12.38;73.86;97700.94;5090809;28;20417;-62
2023/10/15 06:02:02;;;;;;;3.08;2.03;;;;;;;12.22;74.22;97693.22;5091033;28;20127;-62
2023/10/15 06:04:28;;;;;;;3.63;2.35;;;;;;;12.28;75.43;97723.16;5072975;28;20407;-61
2023/10/15 06:06:55;;;;;;;3.63;2.10;;;;;;;12.19;73.78;97704.41;5072618;28;20044;-61
2023/10/15 06:09:20;;;;;;;2.97;1.80;;;;;;;12.13;73.27;97721.50;5083958;28;20506;-62
2023/10/15 06:11:46;;;;;;;3.08;2.17;;;;;;;12.08;74.55;97718.91;5084913;28;20074;-62
2023/10/15 06:14:12;;;;;;;3.92;1.88;;;;;;;12.14;74.51;97728.38;5090942;28;20521;-62
2023/10/15 06:16:37;;;;;;;3.63;1.90;;;;;;;12.10;75.08;97748.63;5090964;28;20519;-63
2023/10/15 06:19:03;;;;;;;3.20;2.00;;;;;;;11.99;74.12;97766.56;5091004;28;20509;-62
2023/10/15 06:21:29;;;;;;;2.92;2.10;;;;;;;11.94;75.60;97766.66;5047162;28;20044;-62
2023/10/15 06:23:55;;;;;;;3.63;2.15;;;;;;;11.87;76.54;97773.38;5069926;28;20036;-61
2023/10/15 06:26:20;;;;;;;3.30;2.00;;;;;;;11.82;77.44;97792.78;5076274;28;20043;-61
2023/10/15 06:28:46;;;;;;;2.78;2.45;;;;;;;11.70;77.54;97793.19;5092096;28;20035;-61
2023/10/15 06:31:12;;;;;;;4.38;2.47;;;;;;;11.71;77.63;97786.03;5094124;28;20101;-61
2023/10/15 06:33:40;;;;;;;3.92;2.72;;;;;;;11.58;78.21;97785.63;5094392;28;20040;-61
2023/10/15 06:36:07;;;;;;;4.45;2.08;;;;;;;11.56;80.22;97790.44;5094346;28;20040;-61
2023/10/15 06:38:33;;;;;;;2.72;2.20;;;;;;;11.57;81.19;97785.91;5094125;28;20032;-62
2023/10/15 06:41:00;;;;;;;2.95;1.92;;;;;;;11.69;79.81;97794.25;5094479;28;20048;-62
2023/10/15 06:43:27;;;;;;;4.60;2.55;;;;;;;11.74;80.17;97790.78;5093642;28;20051;-62
2023/10/15 06:45:52;;;;;;;4.20;2.33;;;;;;;11.67;78.14;97785.00;5094294;28;20086;-62
2023/10/15 06:48:22;;;;;;;3.30;2.10;;;;;;;11.57;79.71;97778.72;5093808;28;20070;-61
2023/10/15 06:50:48;;;;;;;5.22;2.10;;;;;;;11.55;80.05;97775.56;5059866;28;20193;-61
2023/10/15 06:53:14;;;;;;;4.07;2.25;;;;;;;11.42;78.68;97765.66;5093844;28;20040;-61
2023/10/15 06:55:45;;;;;;;4.82;2.00;;;;;;;11.43;81.20;97755.81;5076036;28;20066;-61
2023/10/15 06:58:12;;;;;;;4.07;2.22;;;;;;;11.44;78.74;97766.16;5055789;28;20130;-62
2023/10/15 07:00:38;;;;;;;5.70;2.03;;;;;;;11.52;83.48;97760.22;5073817;28;20040;-61
2023/10/15 07:03:04;;;;;;;4.32;1.67;;;;;;;11.60;83.32;97748.97;5084301;28;20040;-62
2023/10/15 07:05:30;;;;;;;3.30;1.80;;;;;;;11.61;82.12;97755.06;5075573;28;20047;-61
2023/10/15 07:07:59;;;;;;;4.22;1.80;;;;;;;11.67;78.76;97745.19;5093750;28;20040;-61
2023/10/15 07:10:25;;;;;;;5.10;2.53;;;;;;;11.67;78.09;97747.84;5093564;28;20466;-62
2023/10/15 07:12:51;;;;;;;4.07;1.90;;;;;;;11.55;77.08;97751.69;5093372;28;20123;-62
2023/10/15 07:15:22;;;;;;;3.00;2.08;;;;;;;11.57;79.12;97754.84;5093605;28;20036;-60
2023/10/15 07:17:49;;;;;;;3.03;1.90;;;;;;;11.69;81.57;97767.72;5093059;28;20468;-62
2023/10/15 07:20:16;;;;;;;4.95;2.30;;;;;;;11.68;78.34;97778.63;5093360;28;20094;-62
2023/10/15 07:22:44;;;;;;;4.25;2.10;;;;;;;11.61;77.85;97776.31;5093278;28;20044;-62
2023/10/15 07:25:10;;;;;;;4.22;2.35;;;;;;;11.62;77.99;97767.28;5093484;28;20091;-62
2023/10/15 07:27:41;;;;;;;4.72;2.40;;;;;;;11.59;77.93;97762.53;5075219;28;20042;-62
2023/10/15 07:30:12;;;;;;;4.38;2.38;;;;;;;11.63;77.84;97760.88;5093421;28;20047;-61
2023/10/15 07:32:40;;;;;;;4.68;2.40;;;;;;;11.80;79.27;97765.75;5093389;28;20040;-61
2023/10/15 07:35:11;;;;;;;3.65;2.33;;;;;;;11.83;77.19;97757.19;5092740;28;20127;-61
2023/10/15 07:37:41;;;;;;;4.07;2.60;;;;;;;11.88;77.47;97756.38;5058644;28;20044;-62
2023/10/15 07:40:16;;;;;;;3.08;2.28;;;;;;;11.94;78.79;97753.38;5074474;28;20075;-61
2023/10/15 07:42:48;;;;;;;3.30;2.17;;;;;;;11.95;77.91;97741.66;5075832;28;20458;-61
2023/10/15 07:45:14;;;;;;;4.20;2.13;;;;;;;11.92;78.09;97747.56;5092590;28;20036;-61
2023/10/15 07:47:40;;;;;;;4.15;2.58;;;;;;;11.96;78.47;97742.44;5074951;28;20137;-62
2023/10/15 07:50:08;;;;;;;5.13;2.42;;;;;;;12.07;79.22;97753.75;5074619;28;20155;-62
2023/10/15 07:52:34;;;;;;;3.83;2.00;;;;;;;12.07;78.51;97746.56;5057880;28;20040;-61
2023/10/15 07:55:01;;;;;;;3.58;2.28;;;;;;;12.07;80.02;97751.09;5092660;28;20127;-62
2023/10/15 07:57:27;;;;;;;4.05;2.25;;;;;;;12.08;79.84;97745.47;5093075;28;20131;-61
2023/10/15 07:59:58;;;;;;;3.63;2.80;;;;;;;12.06;79.44;97750.31;5074241;28;20568;-63
2023/10/15 08:02:27;;;;;;;4.82;2.40;;;;;;;12.04;79.29;97763.84;5093081;28;20134;-61
2023/10/15 08:04:56;;;;;;;4.83;2.17;;;;;;;12.00;80.66;97764.69;5092446;28;20043;-61
2023/10/15 08:07:22;;;;;;;3.75;2.28;;;;;;;12.02;80.32;97767.88;5074611;28;20386;-62
2023/10/15 08:09:50;;;;;;;3.95;2.40;;;;;;;12.08;81.19;97774.69;5091894;28;20052;-61
2023/10/15 08:12:16;;;;;;;6.00;2.45;;;;;;;12.09;79.54;97776.28;5074696;28;20036;-61
2023/10/15 08:14:42;;;;;;;3.13;2.53;;;;;;;12.08;81.60;97774.69;5074039;28;20040;-62
2023/10/15 08:17:08;;;;;;;3.65;2.05;;;;;;;11.99;81.82;97761.25;5092877;28;20047;-61
2023/10/15 08:19:34;;;;;;;4.15;2.25;;;;;;;11.98;80.78;97743.75;5092180;28;20089;-62
2023/10/15 08:22:00;;;;;;;4.95;2.38;;;;;;;11.97;80.97;97758.13;5092695;28;20056;-60
2023/10/15 08:24:25;;;;;;;4.13;2.20;;;;;;;12.00;81.80;97773.47;5091606;28;20458;-62
2023/10/15 08:26:51;;;;;;;4.70;2.22;;;;;;;12.10;81.70;97767.22;5092569;28;20040;-61
2023/10/15 08:29:19;;;;;;;3.63;2.20;;;;;;;12.13;81.43;97773.84;5091996;28;20497;-62
2023/10/15 08:31:48;;;;;;;4.93;2.25;;;;;;;12.20;80.64;97784.88;5074197;28;20075;-63
2023/10/15 08:34:15;;;;;;;6.15;2.40;;;;;;;12.23;80.38;97771.03;5092162;28;20036;-61
2023/10/15 08:36:42;;;;;;;5.15;2.42;;;;;;;12.22;80.50;97769.47;5073493;28;20093;-62
2023/10/15 08:39:08;;;;;;;3.35;2.30;;;;;;;12.21;79.80;97776.66;5091738;28;20040;-63
2023/10/15 08:41:38;;;;;;;4.47;1.98;;;;;;;12.17;79.79;97772.19;5091977;28;20489;-63
2023/10/15 08:44:08;;;;;;;4.20;2.10;;;;;;;12.08;80.28;97772.03;5091638;28;20489;-62
2023/10/15 08:46:40;;;;;;;7.40;2.40;;;;;;;12.09;80.76;97773.63;5091869;28;20493;-62
2023/10/15 08:49:07;;;;;;;2.97;2.33;;;;;;;12.09;81.24;97778.13;5091746;28;20036;-61
2023/10/15 08:51:34;;;;;;;4.13;2.22;;;;;;;12.09;80.92;97763.00;5090683;28;20512;-61
2023/10/15 08:54:02;;;;;;;3.30;1.83;;;;;;;11.95;80.66;97762.91;5073871;28;20060;-61
2023/10/15 08:56:30;;;;;;;3.63;2.33;;;;;;;12.02;81.41;97767.88;5091541;28;20055;-62
2023/10/15 08:58:57;;;;;;;6.05;2.67;;;;;;;11.97;81.63;97758.13;5073787;28;20036;-62
2023/10/15 09:01:23;;;;;;;3.63;2.55;;;;;;;11.95;82.25;97770.09;5091679;28;20036;-63
2023/10/15 09:03:52;;;;;;;5.13;2.88;;;;;;;11.99;82.64;97763.91;5091705;28;20040;-62
2023/10/15 09:06:19;;;;;;;4.47;2.35;;;;;;;12.01;81.85;97766.28;5072935;28;20409;-62
2023/10/15 09:08:46;;;;;;;6.30;2.60;;;;;;;12.01;81.71;97753.03;5091037;28;20079;-60
2023/10/15 09:11:12;;;;;;;5.35;2.70;;;;;;;12.07;81.09;97754.53;5091502;28;20405;-62
2023/10/15 09:13:38;;;;;;;3.95;2.20;;;;;;;12.05;80.88;97749.47;5073615;28;20118;-62
2023/10/15 09:16:04;;;;;;;4.72;2.85;;;;;;;12.10;81.40;97745.97;5073631;28;20512;-63
2023/10/15 09:18:35;;;;;;;4.85;3.00;;;;;;;12.19;80.94;97751.44;5091422;28;20040;-63
2023/10/15 09:21:04;;;;;;;5.88;2.65;;;;;;;12.17;80.18;97753.59;5073319;28;20048;-61
2023/10/15 09:23:37;;;;;;;3.75;2.22;;;;;;;12.12;80.64;97746.50;5091021;28;20126;-62
2023/10/15 09:26:05;;;;;;;7.38;2.50;;;;;;;11.99;80.75;97752.50;5091662;28;20043;-61
2023/10/15 09:28:32;;;;;;;5.50;2.70;;;;;;;12.02;80.99;97763.34;5073390;28;20048;-64
2023/10/15 09:31:06;;;;;;;4.05;2.60;;;;;;;12.08;81.10;97752.66;5091736;28;20322;-62
2023/10/15 09:33:33;;;;;;;3.58;2.38;;;;;;;11.98;80.66;97750.94;5073128;28;20040;-63
2023/10/15 09:35:59;;;;;;;6.10;2.83;;;;;;;12.02;81.89;97747.41;5091387;28;20478;-62
2023/10/15 09:38:25;;;;;;;5.25;2.70;;;;;;;12.09;81.05;97746.25;5073292;28;20492;-62
2023/10/15 09:40:55;;;;;;;4.10;2.53;;;;;;;12.13;80.32;97747.28;5091440;28;20047;-62
2023/10/15 09:43:24;;;;;;;5.82;2.30;;;;;;;12.22;80.63;97758.84;5090912;28;20040;-63
2023/10/15 09:45:54;;;;;;;5.55;2.28;;;;;;;12.32;80.26;97757.88;5091332;28;20089;-62
2023/10/15 09:48:25;;;;;;;12.27;2.63;;;;;;;12.39;79.69;97767.09;5091194;28;20024;-62
2023/10/15 09:50:57;;;;;;;10.48;4.45;;;;;;;12.24;79.12;97770.75;5073338;28;20044;-62
2023/10/15 09:53:29;;;;;;;3.70;2.42;;;;;;;12.23;79.43;97768.38;5073746;28;20382;-62
2023/10/15 09:55:59;;;;;;;5.10;2.25;;;;;;;12.30;79.64;97770.69;5091345;28;20501;-61
2023/10/15 09:58:25;;;;;;;7.00;2.45;;;;;;;12.32;79.10;97760.53;5091169;28;20039;-62
2023/10/15 10:03:37;;;;;;;5.85;2.53;;;;;;;12.35;79.77;97754.66;5093001;28;20047;-61
2023/10/15 10:06:37;;;;;;;7.97;2.75;;;;;;;12.42;78.94;97750.56;5093358;28;20113;-62
2023/10/15 10:09:39;;;;;;;6.57;2.78;;;;;;;12.45;78.83;97742.00;5094500;28;20048;-62
2023/10/15 10:12:08;;;;;;;4.63;2.60;;;;;;;12.49;79.08;97745.66;5095057;28;20047;-61
2023/10/15 10:14:49;;;;;;;5.55;2.63;;;;;;;12.61;78.84;97726.59;5076297;28;20051;-61
2023/10/15 10:17:18;;;;;;;3.97;2.40;;;;;;;12.69;77.73;97725.94;5095157;28;20089;-61
2023/10/15 10:19:45;;;;;;;5.45;2.80;;;;;;;12.73;78.37;97734.13;5094370;28;20040;-62
2023/10/15 10:22:26;;;;;;;7.07;3.00;;;;;;;12.67;77.39;97740.59;5076960;28;20048;-62
2023/10/15 10:24:53;;;;;;;7.07;3.17;;;;;;;12.70;78.08;97740.81;5076486;28;20051;-61
2023/10/15 10:27:19;;;;;;;5.07;2.83;;;;;;;12.68;77.35;97750.97;5094941;28;20055;-63
2023/10/15 10:30:15;;;;;;;8.07;2.97;;;;;;;12.69;78.56;97747.22;5094480;28;20028;-62
2023/10/15 10:32:41;;;;;;;4.93;2.90;;;;;;;12.66;77.78;97750.44;5093539;28;20059;-62
2023/10/15 10:35:16;;;;;;;11.45;3.38;;;;;;;12.62;77.55;97746.03;5093338;28;20101;-61
2023/10/15 10:38:00;;;;;;;6.68;2.85;;;;;;;12.47;78.43;97742.53;5094349;28;20452;-62
2023/10/15 10:41:07;;;;;;;7.43;2.75;;;;;;;12.44;78.11;97735.13;5075920;28;20105;-62
2023/10/15 10:43:33;;;;;;;4.20;2.25;;;;;;;12.44;77.13;97716.53;5011770;28;20038;-62
2023/10/15 10:46:00;;;;;;;6.80;2.75;;;;;;;12.50;77.13;97728.66;5011600;28;20558;-62
2023/10/15 10:48:28;;;;;;;5.50;3.20;;;;;;;12.55;77.82;97753.56;5025452;28;20091;-61
2023/10/15 10:51:19;;;;;;;7.63;3.22;;;;;;;12.53;78.17;97761.03;5088551;28;20520;-63
2023/10/15 10:53:59;;;;;;;7.97;2.58;;;;;;;12.52;77.25;97748.81;5075428;28;20051;-62
2023/10/15 10:56:40;;;;;;;5.57;2.70;;;;;;;12.42;77.49;97750.56;5093809;28;20101;-62
2023/10/15 10:59:07;;;;;;;5.78;2.47;;;;;;;12.36;77.34;97750.94;5093851;28;20416;-62
2023/10/15 11:01:40;;;;;;;6.40;3.55;;;;;;;12.43;77.89;97746.81;5093856;28;20527;-62
2023/10/15 11:04:06;;;;;;;6.28;2.40;;;;;;;12.52;77.48;97754.13;5075871;28;20143;-61
2023/10/15 11:06:37;;;;;;;4.60;2.55;;;;;;;12.42;76.76;97752.44;5075311;28;20095;-62
2023/10/15 11:09:15;;;;;;;7.15;2.40;;;;;;;12.40;77.96;97760.69;5055112;28;20048;-62
2023/10/15 11:11:52;;;;;;;4.55;2.42;;;;;;;12.32;76.33;97757.88;5089620;28;20439;-62
2023/10/15 11:14:23;;;;;;;5.20;2.42;;;;;;;12.26;77.74;97765.13;5092958;28;20032;-62
2023/10/15 11:16:50;;;;;;;4.45;2.40;;;;;;;12.37;77.11;97749.84;5074900;28;20562;-62
2023/10/15 11:19:17;;;;;;;7.47;2.42;;;;;;;12.36;76.47;97750.94;5093294;28;20101;-62
2023/10/15 11:21:44;;;;;;;5.82;2.55;;;;;;;12.27;75.84;97756.91;5093322;28;20059;-62
2023/10/15 11:24:11;;;;;;;4.47;2.13;;;;;;;12.25;76.16;97753.72;5058841;28;20222;-62
2023/10/15 11:26:41;;;;;;;4.22;1.98;;;;;;;12.27;76.54;97743.63;5074888;28;20059;-63
2023/10/15 11:29:14;;;;;;;6.35;2.50;;;;;;;12.28;76.08;97747.84;5093528;28;20194;-64
2023/10/15 11:31:44;;;;;;;5.47;2.40;;;;;;;12.33;75.84;97754.19;5058183;28;20047;-61
2023/10/15 11:34:19;;;;;;;8.73;2.85;;;;;;;12.44;75.37;97751.06;5074976;28;20040;-62
2023/10/15 11:36:48;;;;;;;5.10;2.00;;;;;;;12.41;75.37;97756.16;5074682;28;20048;-61
2023/10/15 11:39:18;;;;;;;5.03;2.40;;;;;;;12.43;74.80;97773.41;5093238;28;20036;-62
2023/10/15 11:41:51;;;;;;;9.25;2.30;;;;;;;12.44;75.61;97756.38;5093160;28;20039;-62
2023/10/15 11:44:18;;;;;;;3.97;2.25;;;;;;;12.48;74.73;97768.00;5074973;28;20048;-63
2023/10/15 11:46:46;;;;;;;8.68;2.65;;;;;;;12.53;75.77;97775.13;5092780;28;20052;-65
2023/10/15 11:49:12;;;;;;;4.20;2.60;;;;;;;12.57;75.04;97767.34;5092807;28;20046;-63
2023/10/15 11:51:40;;;;;;;6.03;2.80;;;;;;;12.45;74.66;97765.94;5074434;28;20122;-62
2023/10/15 11:54:09;;;;;;;7.75;2.67;;;;;;;12.46;74.71;97770.16;5092968;28;20036;-63
2023/10/15 11:56:38;;;;;;;6.90;2.55;;;;;;;12.43;74.81;97761.97;5092375;28;20051;-61
2023/10/15 11:59:03;;;;;;;4.60;2.17;;;;;;;12.40;74.42;97765.22;5092651;28;20568;-62